Terminal Aerodrome Forecast
Issued by NWS Denver/Boulder, CO

Home | Current Version | Previous Version | Text Only | Print | Product List | Glossary On
Versions: 1 2 3 4 5 6 7 8 9 10 11 12 13 14 15 16 17 18 19 20 21 22 23 24 25 26 27 28 29 30 31 32 33 34 35 36 37 38 39 40 41 42 43 44 45
000
FTUS45 KBOU 231906 AAA
TAFDEN
TAF AMD
KDEN 231906Z 2319/2424 12010KT P6SM FEW080 SCT140 BKN200
     FM232100 32012KT P6SM SCT080 BKN150
     FM232300 35016G22KT P6SM VCSH SCT070 BKN140
     FM240200 32012KT P6SM SCT140 BKN200
     FM240800 24007KT P6SM FEW200
     FM241700 20006KT P6SM FEW220
     FM242000 16007KT P6SM SCT220=

USA.gov is the U.S. government's official web portal to all federal, state and local government web resources and services.